Time;durP1;ratioP1;P1;durP2;ratioP2;P2;SDS_P1;SDS_P2;PMS_P1;PMS_P2;Temp;Humidity;BMP_temperature;BMP_pressure;BME280_temperature;BME280_humidity;BME280_pressure;Samples;Min_cycle;Max_cycle;Signal;HPM_P1;HPM_P2
2022/12/11 00:01:55;;;;;;;22.42;10.18;;;-0.50;99.90;;;;;;4899019;29;20443;-69
2022/12/11 00:04:21;;;;;;;31.48;12.23;;;-1.00;99.90;;;;;;4883530;29;20079;-69
2022/12/11 00:06:49;;;;;;;26.38;11.35;;;-1.10;99.90;;;;;;4898997;29;20044;-68
2022/12/11 00:09:19;;;;;;;26.25;11.68;;;-1.00;99.90;;;;;;4898960;29;20413;-68
2022/12/11 00:11:46;;;;;;;26.15;12.13;;;-1.10;99.90;;;;;;4898841;29;20055;-68
2022/12/11 00:14:12;;;;;;;;;;;-1.10;99.90;;;;;;4896001;29;20048;-68
2022/12/11 00:16:38;;;;;;;27.63;11.65;;;-0.50;99.90;;;;;;4880061;29;19923;-68
2022/12/11 00:19:04;;;;;;;27.67;10.70;;;-0.50;99.90;;;;;;4895767;29;20079;-68
2022/12/11 00:21:30;;;;;;;24.35;10.13;;;-0.80;99.90;;;;;;4896948;29;20131;-68
2022/12/11 00:23:56;;;;;;;23.33;10.15;;;-1.00;99.90;;;;;;4895479;29;20526;-69
2022/12/11 00:26:22;;;;;;;27.67;10.98;;;-1.10;99.90;;;;;;4896923;29;20041;-68
2022/12/11 00:28:50;;;;;;;20.58;9.23;;;-1.00;99.90;;;;;;4879835;29;20135;-68
2022/12/11 00:31:20;;;;;;;19.30;7.60;;;-0.40;99.90;;;;;;4879881;29;20099;-68
2022/12/11 00:33:49;;;;;;;19.48;7.95;;;-0.70;99.90;;;;;;4896663;29;20111;-68
2022/12/11 00:36:23;;;;;;;15.65;6.97;;;-0.40;99.90;;;;;;4879710;29;20055;-70
2022/12/11 00:38:50;;;;;;;17.30;7.43;;;-0.40;99.90;;;;;;4879909;29;20071;-70
2022/12/11 00:41:16;;;;;;;14.82;5.80;;;-0.50;99.90;;;;;;4879587;29;20076;-69
2022/12/11 00:43:42;;;;;;;24.95;9.10;;;-1.00;99.90;;;;;;4879631;29;20100;-69
2022/12/11 00:46:08;;;;;;;23.13;9.32;;;-0.90;99.90;;;;;;4879649;29;20056;-69
2022/12/11 00:48:34;;;;;;;23.95;9.75;;;-0.90;99.90;;;;;;4879705;29;20046;-69
2022/12/11 00:51:00;;;;;;;18.65;7.88;;;-0.80;99.90;;;;;;4879837;29;20052;-69
2022/12/11 00:53:26;;;;;;;20.83;8.52;;;-0.90;99.90;;;;;;4879606;29;20087;-69
2022/12/11 00:55:52;;;;;;;18.40;8.15;;;-0.60;99.90;;;;;;4879593;29;20521;-69
2022/12/11 00:58:18;;;;;;;22.55;9.10;;;-0.80;99.90;;;;;;4879405;29;20055;-69
2022/12/11 01:00:44;;;;;;;19.48;8.65;;;-0.80;99.90;;;;;;4879428;29;20049;-69
2022/12/11 01:03:12;;;;;;;20.27;8.90;;;-0.70;99.90;;;;;;4879630;29;20470;-70
2022/12/11 01:05:38;;;;;;;22.77;8.98;;;-0.20;99.90;;;;;;4879165;29;20056;-70
2022/12/11 01:08:04;;;;;;;16.02;7.00;;;-0.20;99.90;;;;;;4879459;29;20048;-70
2022/12/11 01:10:30;;;;;;;16.05;6.22;;;-0.30;99.90;;;;;;4879219;29;20044;-69
2022/12/11 01:13:06;;;;;;;21.73;8.85;;;-0.20;99.90;;;;;;4879401;29;20131;-69
2022/12/11 01:15:37;;;;;;;16.73;7.90;;;-0.70;99.90;;;;;;4896233;29;20052;-69
2022/12/11 01:18:03;;;;;;;16.17;7.80;;;-0.60;99.90;;;;;;4879283;29;20049;-70
2022/12/11 01:20:29;;;;;;;17.25;6.85;;;-0.20;99.90;;;;;;4879290;29;20049;-70
2022/12/11 01:22:57;;;;;;;17.23;7.32;;;-0.60;99.90;;;;;;4863446;29;20051;-70
2022/12/11 01:25:24;;;;;;;15.35;6.97;;;-0.10;99.90;;;;;;4890147;29;20131;-70
2022/12/11 01:27:50;;;;;;;;;;;-0.60;99.90;;;;;;4879392;29;20059;-71
2022/12/11 01:30:17;;;;;;;11.93;5.68;;;-0.10;99.90;;;;;;4879746;29;20296;-71
2022/12/11 01:32:43;;;;;;;17.30;7.32;;;-0.30;99.90;;;;;;4864150;29;20108;-71
2022/12/11 01:35:10;;;;;;;12.32;5.85;;;-0.40;99.90;;;;;;4864403;29;20427;-71
2022/12/11 01:37:37;;;;;;;12.25;5.85;;;0.00;99.90;;;;;;4879655;29;20048;-71
2022/12/11 01:40:05;;;;;;;18.27;7.32;;;-0.60;99.90;;;;;;4879549;29;20558;-71
2022/12/11 01:42:31;;;;;;;12.85;6.35;;;-0.60;99.90;;;;;;4864035;29;20057;-71
2022/12/11 01:45:21;;;;;;;10.65;4.82;;;-0.50;99.90;;;;;;4879197;29;20049;-71
2022/12/11 01:48:08;;;;;;;12.32;5.75;;;0.00;99.90;;;;;;4879070;29;20061;-71
2022/12/11 01:50:39;;;;;;;13.50;5.65;;;0.00;99.90;;;;;;4878802;29;20088;-69
2022/12/11 01:53:09;;;;;;;11.20;5.45;;;-0.60;99.90;;;;;;4879384;29;20041;-70
2022/12/11 01:55:37;;;;;;;10.10;4.45;;;-0.50;99.90;;;;;;4862902;29;20055;-69
2022/12/11 01:58:05;;;;;;;8.13;3.80;;;-0.10;99.90;;;;;;4879131;29;20052;-69
2022/12/11 02:00:30;;;;;;;11.07;4.70;;;-0.60;99.90;;;;;;4895175;29;20411;-69
2022/12/11 02:02:56;;;;;;;9.65;4.00;;;0.10;99.90;;;;;;4878992;29;20051;-69
2022/12/11 02:05:22;;;;;;;8.20;4.03;;;-0.50;99.90;;;;;;4863083;29;20443;-69
2022/12/11 02:07:53;;;;;;;9.60;4.28;;;-0.60;99.90;;;;;;4863588;29;20725;-69
2022/12/11 02:10:18;;;;;;;9.02;4.50;;;-0.50;99.90;;;;;;4895647;29;20052;-69
2022/12/11 02:13:03;;;;;;;15.60;6.28;;;0.10;99.90;;;;;;4878489;29;20049;-71
2022/12/11 02:15:32;;;;;;;11.65;4.90;;;0.10;99.90;;;;;;4895472;29;20050;-71
2022/12/11 02:18:09;;;;;;;8.50;3.95;;;-0.10;99.90;;;;;;4895801;29;20162;-71
2022/12/11 02:20:37;;;;;;;;;;;0.20;99.90;;;;;;4878888;29;20052;-71
2022/12/11 02:23:06;;;;;;;;;;;-0.50;99.90;;;;;;4879273;29;19923;-71
2022/12/11 02:25:47;;;;;;;13.32;5.28;;;0.20;99.90;;;;;;4878899;29;19920;-71
2022/12/11 02:28:19;;;;;;;13.88;5.60;;;-0.10;99.90;;;;;;4878529;29;20049;-71
2022/12/11 02:30:52;;;;;;;9.40;4.30;;;-0.30;99.90;;;;;;4879120;29;20048;-71
2022/12/11 02:33:23;;;;;;;9.00;4.32;;;0.20;99.90;;;;;;4879271;29;20455;-71
2022/12/11 02:35:49;;;;;;;9.73;4.03;;;-0.40;99.90;;;;;;4878745;29;20049;-71
2022/12/11 02:38:29;;;;;;;7.13;3.28;;;0.30;99.90;;;;;;4878755;29;20051;-71
2022/12/11 02:40:59;;;;;;;11.68;5.82;;;-0.10;99.90;;;;;;4863503;29;20435;-71
2022/12/11 02:43:27;;;;;;;9.63;4.78;;;0.10;99.90;;;;;;4878829;29;20107;-71
2022/12/11 02:45:54;;;;;;;12.75;5.45;;;-0.40;99.90;;;;;;4878463;29;20406;-71
2022/12/11 02:48:23;;;;;;;11.05;5.32;;;-0.10;99.90;;;;;;4878129;29;20081;-71
2022/12/11 02:50:52;;;;;;;16.00;6.70;;;-0.40;99.90;;;;;;4877957;29;20059;-71
2022/12/11 02:53:21;;;;;;;20.35;8.25;;;-0.20;99.90;;;;;;4863046;29;20120;-71
2022/12/11 02:55:51;;;;;;;16.88;6.63;;;0.20;99.90;;;;;;4878307;29;20056;-71
2022/12/11 02:58:28;;;;;;;22.00;7.80;;;0.30;99.90;;;;;;4895769;29;20066;-71
2022/12/11 03:00:53;;;;;;;21.63;7.80;;;0.20;99.90;;;;;;4878367;29;20069;-71
2022/12/11 03:03:20;;;;;;;23.23;9.10;;;-0.20;99.90;;;;;;4878506;29;20045;-71
2022/12/11 03:05:46;;;;;;;;;;;-0.20;99.90;;;;;;4879192;29;20040;-71
2022/12/11 03:08:17;;;;;;;24.17;9.80;;;-0.30;99.90;;;;;;4878172;29;19975;-70
2022/12/11 03:10:44;;;;;;;24.88;9.13;;;0.40;99.90;;;;;;4895499;29;20446;-71
2022/12/11 03:13:12;;;;;;;21.50;8.88;;;-0.10;99.90;;;;;;4880433;29;20048;-71
2022/12/11 03:15:46;;;;;;;17.92;7.80;;;0.40;99.90;;;;;;4914107;29;20084;-71
2022/12/11 03:18:22;;;;;;;17.85;6.07;;;-0.20;99.90;;;;;;4900711;29;20055;-71
2022/12/11 03:21:03;;;;;;;12.95;5.90;;;0.20;99.90;;;;;;4899830;29;20500;-69
2022/12/11 03:23:38;;;;;;;9.95;4.45;;;0.00;99.90;;;;;;4899800;29;20478;-69
2022/12/11 03:26:07;;;;;;;16.15;5.97;;;-0.30;99.90;;;;;;4899812;29;20052;-69
2022/12/11 03:28:38;;;;;;;11.48;4.28;;;-0.20;99.90;;;;;;4900045;29;20103;-69
2022/12/11 03:31:09;;;;;;;11.30;4.82;;;0.40;99.90;;;;;;4900281;29;20087;-69
2022/12/11 03:33:39;;;;;;;13.23;5.63;;;0.40;99.90;;;;;;4899967;29;20409;-68
2022/12/11 03:36:09;;;;;;;15.98;5.25;;;-0.20;99.90;;;;;;4899549;29;20047;-68
2022/12/11 03:38:36;;;;;;;13.82;4.78;;;0.40;99.90;;;;;;4899808;29;20151;-68
2022/12/11 03:41:04;;;;;;;13.48;5.22;;;0.40;99.90;;;;;;4899617;29;20044;-68
2022/12/11 03:43:31;;;;;;;12.57;5.35;;;-0.10;99.90;;;;;;4916814;29;20072;-68
2022/12/11 03:45:58;;;;;;;10.52;4.55;;;-0.10;99.90;;;;;;4916589;29;20048;-68
2022/12/11 03:48:31;;;;;;;9.95;4.65;;;-0.10;99.90;;;;;;4884229;29;20087;-68
2022/12/11 03:50:59;;;;;;;7.97;4.03;;;0.40;99.90;;;;;;4899634;29;20056;-68
2022/12/11 03:53:26;;;;;;;10.25;4.55;;;0.50;99.90;;;;;;4899626;29;20040;-69
2022/12/11 03:55:53;;;;;;;11.68;4.80;;;-0.10;99.90;;;;;;4916662;29;20055;-68
2022/12/11 03:58:18;;;;;;;12.82;5.30;;;0.10;99.90;;;;;;4916438;29;20091;-70
2022/12/11 04:00:44;;;;;;;12.65;5.60;;;0.40;99.90;;;;;;4899168;29;20098;-68
2022/12/11 04:03:13;;;;;;;9.57;4.47;;;0.50;99.90;;;;;;4899419;29;20071;-68
2022/12/11 04:05:50;;;;;;;12.13;5.05;;;0.50;99.90;;;;;;4899271;29;20052;-68
2022/12/11 04:08:19;;;;;;;10.10;5.00;;;-0.20;99.90;;;;;;4898984;29;20521;-68
2022/12/11 04:10:45;;;;;;;9.68;4.85;;;0.00;99.90;;;;;;4883543;29;20183;-68
2022/12/11 04:13:11;;;;;;;11.52;4.70;;;-0.10;99.90;;;;;;4916586;29;20130;-68
2022/12/11 04:15:38;;;;;;;13.85;5.85;;;-0.20;99.90;;;;;;4916048;29;20119;-68
2022/12/11 04:26:19;;;;;;;16.30;6.95;;;0.00;99.90;;;;;;4901424;29;20402;-68
2022/12/11 04:28:46;;;;;;;14.93;5.88;;;0.50;99.90;;;;;;4898907;29;20052;-68
2022/12/11 04:31:14;;;;;;;17.48;6.45;;;0.00;99.90;;;;;;4916366;29;20040;-68
2022/12/11 04:33:40;;;;;;;16.33;6.22;;;0.50;99.90;;;;;;4915852;29;20094;-68
2022/12/11 04:36:07;;;;;;;13.15;5.40;;;0.50;99.90;;;;;;4898909;29;20079;-68
2022/12/11 04:38:32;;;;;;;13.82;6.65;;;0.50;99.90;;;;;;4898632;29;20470;-67
2022/12/11 04:41:00;;;;;;;16.50;6.28;;;0.40;99.90;;;;;;4883209;29;20142;-68
2022/12/11 04:43:26;;;;;;;19.70;7.05;;;0.00;99.90;;;;;;4898751;29;20131;-68
2022/12/11 04:46:00;;;;;;;17.05;6.85;;;-0.10;99.90;;;;;;4915765;29;20048;-68
2022/12/11 04:48:26;;;;;;;14.32;5.88;;;0.00;99.90;;;;;;4915748;29;20047;-68
2022/12/11 04:50:51;;;;;;;17.70;6.80;;;0.50;99.90;;;;;;4898432;29;20103;-68
2022/12/11 04:53:17;;;;;;;20.23;7.65;;;0.10;99.90;;;;;;4898406;29;20071;-68
2022/12/11 04:55:43;;;;;;;18.73;7.80;;;0.00;99.90;;;;;;4898264;29;20044;-68
2022/12/11 04:58:08;;;;;;;17.23;6.80;;;0.00;99.90;;;;;;4882594;29;20303;-69
2022/12/11 05:00:34;;;;;;;24.90;8.83;;;0.40;99.90;;;;;;4897959;29;20308;-69
2022/12/11 05:03:00;;;;;;;22.10;9.15;;;0.10;99.90;;;;;;4898425;29;20056;-69
2022/12/11 05:05:25;;;;;;;24.38;8.93;;;0.60;99.90;;;;;;4898240;29;20099;-69
2022/12/11 05:07:52;;;;;;;18.40;7.88;;;0.10;99.90;;;;;;4898255;29;20036;-69
2022/12/11 05:10:18;;;;;;;30.77;11.70;;;0.30;99.90;;;;;;4882452;29;20048;-69
2022/12/11 05:12:44;;;;;;;23.38;9.68;;;0.00;99.90;;;;;;4882970;29;20059;-69
2022/12/11 05:15:09;;;;;;;26.13;9.63;;;0.40;99.90;;;;;;4894764;29;20055;-68
2022/12/11 05:17:35;;;;;;;27.23;10.50;;;0.30;99.90;;;;;;4879405;29;20449;-68
2022/12/11 05:20:01;;;;;;;22.90;9.50;;;0.20;99.90;;;;;;4879597;29;20072;-68
2022/12/11 05:22:28;;;;;;;34.20;12.30;;;0.60;99.90;;;;;;4879355;29;20051;-69
2022/12/11 05:24:54;;;;;;;30.48;12.13;;;0.60;99.90;;;;;;4863573;29;20063;-68
2022/12/11 05:27:20;;;;;;;24.30;8.90;;;0.20;99.90;;;;;;4879170;29;20044;-68
2022/12/11 05:29:45;;;;;;;23.73;9.77;;;0.10;99.90;;;;;;4879455;29;20413;-68
2022/12/11 05:32:11;;;;;;;22.88;9.07;;;0.00;99.90;;;;;;4879059;29;20055;-68
2022/12/11 05:34:37;;;;;;;17.13;7.53;;;0.10;99.90;;;;;;4879162;29;20056;-68
2022/12/11 05:37:02;;;;;;;18.02;7.28;;;0.30;99.90;;;;;;4879188;29;20059;-68
2022/12/11 05:39:28;;;;;;;16.00;7.10;;;0.10;99.90;;;;;;4878404;29;20052;-69
2022/12/11 05:41:54;;;;;;;16.85;6.55;;;0.50;99.90;;;;;;4863902;29;20048;-68
2022/12/11 05:44:19;;;;;;;15.82;6.43;;;0.20;99.90;;;;;;4896360;29;20045;-68
2022/12/11 05:46:45;;;;;;;16.92;6.80;;;0.10;99.90;;;;;;4896068;29;20125;-69
2022/12/11 05:49:11;;;;;;;15.52;5.85;;;0.70;99.90;;;;;;4896293;29;20056;-67
2022/12/11 05:51:38;;;;;;;16.43;6.40;;;0.60;99.90;;;;;;4879078;29;20060;-67
2022/12/11 05:54:04;;;;;;;16.23;6.55;;;0.40;99.90;;;;;;4895654;29;20285;-68
2022/12/11 05:56:32;;;;;;;12.95;5.35;;;0.20;99.90;;;;;;4878396;29;20044;-68
2022/12/11 05:58:59;;;;;;;12.13;5.13;;;0.20;99.90;;;;;;4878800;29;20492;-68
2022/12/11 06:01:31;;;;;;;16.52;6.25;;;0.50;99.90;;;;;;4878469;29;20418;-68
2022/12/11 06:03:58;;;;;;;20.05;7.80;;;0.20;99.90;;;;;;4879058;29;20084;-68
2022/12/11 06:06:25;;;;;;;24.02;9.48;;;0.60;99.90;;;;;;4878635;29;20052;-68
2022/12/11 06:08:56;;;;;;;22.17;8.77;;;0.70;99.90;;;;;;4894480;29;20048;-68
2022/12/11 06:11:22;;;;;;;23.27;8.93;;;0.60;99.90;;;;;;4894500;29;20384;-68
2022/12/11 06:13:48;;;;;;;19.25;8.52;;;0.50;99.90;;;;;;4897186;29;20059;-68
2022/12/11 06:16:14;;;;;;;17.27;7.20;;;0.50;99.90;;;;;;4878553;29;20131;-68
2022/12/11 06:18:42;;;;;;;15.88;6.68;;;0.70;99.90;;;;;;4878496;29;20103;-68
2022/12/11 06:21:17;;;;;;;13.65;6.15;;;0.60;99.90;;;;;;4878886;29;20052;-70
2022/12/11 06:23:44;;;;;;;13.05;5.75;;;0.70;99.90;;;;;;4878827;29;20051;-70
2022/12/11 06:26:11;;;;;;;12.20;4.50;;;0.50;99.90;;;;;;4878119;29;20086;-70
2022/12/11 06:28:36;;;;;;;;;;;0.40;99.90;;;;;;4895744;29;20067;-70
2022/12/11 06:31:02;;;;;;;7.55;3.75;;;0.50;99.90;;;;;;4910103;29;19923;-70
2022/12/11 06:33:28;;;;;;;7.38;3.50;;;0.70;99.90;;;;;;4878463;29;20045;-70
2022/12/11 06:35:54;;;;;;;6.90;3.30;;;0.30;99.90;;;;;;4862705;29;20051;-69
2022/12/11 06:38:19;;;;;;;9.90;4.10;;;0.60;99.90;;;;;;4878312;29;20131;-70
2022/12/11 06:40:45;;;;;;;9.13;4.03;;;0.50;99.90;;;;;;4878640;29;20063;-70
2022/12/11 06:43:11;;;;;;;10.15;3.90;;;0.70;99.90;;;;;;4847528;29;20049;-70
2022/12/11 06:45:37;;;;;;;7.95;3.47;;;0.20;99.90;;;;;;4878924;29;20054;-69
2022/12/11 06:48:03;;;;;;;12.02;4.85;;;0.20;99.90;;;;;;4895119;29;20055;-70
2022/12/11 06:50:28;;;;;;;14.80;5.82;;;0.60;99.90;;;;;;4863966;29;20040;-70
2022/12/11 06:52:55;;;;;;;12.43;5.30;;;0.70;99.90;;;;;;4882083;29;20103;-69
2022/12/11 06:55:21;;;;;;;10.45;4.72;;;0.70;99.90;;;;;;4881387;29;20304;-69
2022/12/11 06:57:46;;;;;;;9.60;4.65;;;0.60;99.90;;;;;;4882279;29;20044;-70
2022/12/11 07:00:13;;;;;;;10.50;4.70;;;0.70;99.90;;;;;;4898627;29;20091;-70
2022/12/11 07:02:38;;;;;;;;;;;0.70;99.90;;;;;;4866264;29;20753;-70
2022/12/11 07:05:05;;;;;;;13.70;5.80;;;0.30;99.90;;;;;;4881443;29;20045;-69
2022/12/11 07:07:30;;;;;;;15.85;6.13;;;0.70;99.90;;;;;;4866440;29;20068;-70
2022/12/11 07:09:56;;;;;;;13.15;5.85;;;0.30;99.90;;;;;;4881633;29;20144;-69
2022/12/11 07:12:22;;;;;;;22.38;8.55;;;0.30;99.90;;;;;;4881512;29;20041;-70
2022/12/11 07:14:47;;;;;;;19.42;7.65;;;0.30;99.90;;;;;;4892017;29;20470;-70
2022/12/11 07:17:13;;;;;;;15.18;6.05;;;0.70;99.90;;;;;;4882219;29;20052;-70
2022/12/11 07:19:39;;;;;;;16.50;6.60;;;0.30;99.90;;;;;;4850276;29;20470;-71
2022/12/11 07:22:05;;;;;;;16.73;6.85;;;0.70;99.90;;;;;;4865561;29;20064;-71
2022/12/11 07:24:31;;;;;;;19.33;8.50;;;0.30;99.90;;;;;;4897822;29;20044;-70
2022/12/11 07:26:57;;;;;;;18.20;6.80;;;0.30;99.90;;;;;;4897985;29;20059;-70
2022/12/11 07:29:23;;;;;;;15.90;6.85;;;0.30;99.90;;;;;;4865524;29;20125;-71
2022/12/11 07:31:49;;;;;;;13.00;5.38;;;0.50;99.90;;;;;;4881045;29;20044;-70
2022/12/11 07:34:15;;;;;;;14.27;5.45;;;0.70;99.90;;;;;;4865582;29;20060;-70
2022/12/11 07:36:42;;;;;;;12.18;5.32;;;0.70;99.90;;;;;;4865609;29;20573;-71
2022/12/11 07:39:10;;;;;;;10.50;4.65;;;0.30;99.90;;;;;;4880967;29;20084;-72
2022/12/11 07:41:36;;;;;;;8.60;4.13;;;0.50;99.90;;;;;;4880713;29;20090;-70
2022/12/11 07:44:02;;;;;;;10.43;4.43;;;0.50;99.90;;;;;;4881282;29;20048;-71
2022/12/11 07:46:30;;;;;;;10.65;4.40;;;0.70;99.90;;;;;;4880698;29;20075;-71
2022/12/11 07:48:56;;;;;;;7.55;3.50;;;0.30;99.90;;;;;;4897468;29;20457;-70
2022/12/11 07:51:26;;;;;;;7.00;3.63;;;0.70;99.90;;;;;;4881075;29;20063;-70
2022/12/11 07:53:55;;;;;;;5.90;2.60;;;0.70;99.90;;;;;;4880774;29;20435;-70
2022/12/11 07:56:21;;;;;;;6.65;2.70;;;0.30;99.90;;;;;;4880924;29;20100;-69
2022/12/11 07:58:46;;;;;;;9.50;3.80;;;0.60;99.90;;;;;;4897259;29;20566;-70
2022/12/11 08:01:17;;;;;;;8.43;3.60;;;0.60;99.90;;;;;;4880348;29;20181;-70
2022/12/11 08:03:43;;;;;;;11.38;5.03;;;0.80;99.90;;;;;;4880291;29;20801;-70
2022/12/11 08:06:10;;;;;;;16.38;5.95;;;0.70;99.90;;;;;;4865352;29;20044;-70
2022/12/11 08:08:35;;;;;;;14.48;5.60;;;0.80;99.90;;;;;;4880655;29;20044;-70
2022/12/11 08:11:03;;;;;;;12.88;5.55;;;0.30;99.90;;;;;;4880677;29;20063;-70
2022/12/11 08:13:28;;;;;;;10.25;4.03;;;0.40;99.90;;;;;;4881115;29;20040;-70
2022/12/11 08:15:54;;;;;;;7.82;3.30;;;0.50;99.90;;;;;;4897856;29;20059;-71
2022/12/11 08:18:23;;;;;;;8.88;3.35;;;0.30;99.90;;;;;;4897330;29;20328;-70
2022/12/11 08:20:49;;;;;;;7.65;3.22;;;0.70;99.90;;;;;;4880044;29;20447;-70
2022/12/11 08:23:14;;;;;;;6.18;3.05;;;0.50;99.90;;;;;;4879925;29;20511;-70
2022/12/11 08:25:40;;;;;;;7.70;3.03;;;0.40;99.90;;;;;;4880371;29;20040;-70
2022/12/11 08:28:06;;;;;;;6.30;2.80;;;0.80;99.90;;;;;;4880200;29;20384;-70
2022/12/11 08:30:31;;;;;;;4.90;2.40;;;0.60;99.90;;;;;;4880389;29;20289;-70
2022/12/11 08:32:58;;;;;;;7.13;3.20;;;0.40;99.90;;;;;;4896901;29;20337;-70
2022/12/11 08:35:24;;;;;;;7.85;3.13;;;0.70;99.90;;;;;;4879813;29;20041;-70
2022/12/11 08:37:50;;;;;;;7.90;3.70;;;0.70;99.90;;;;;;4864472;29;20048;-70
2022/12/11 08:40:16;;;;;;;13.07;5.47;;;0.80;99.90;;;;;;4896836;29;20048;-70
2022/12/11 08:42:42;;;;;;;17.75;7.05;;;0.40;99.90;;;;;;4879558;29;20470;-70
2022/12/11 08:45:08;;;;;;;13.27;6.25;;;0.40;99.90;;;;;;4879489;29;20190;-70
2022/12/11 08:47:34;;;;;;;14.95;6.18;;;0.40;99.90;;;;;;4879659;29;20048;-70
2022/12/11 08:49:59;;;;;;;14.82;6.20;;;0.40;99.90;;;;;;4896845;29;20127;-70
2022/12/11 08:52:25;;;;;;;13.75;6.13;;;0.60;99.90;;;;;;4896957;29;20057;-71
2022/12/11 08:54:51;;;;;;;19.98;7.32;;;0.60;99.90;;;;;;4896992;29;20045;-71
2022/12/11 08:57:16;;;;;;;15.77;6.80;;;0.50;99.90;;;;;;4879831;29;20508;-71
2022/12/11 08:59:42;;;;;;;18.02;7.18;;;0.70;99.90;;;;;;4896700;29;20561;-72
2022/12/11 09:02:11;;;;;;;16.60;6.22;;;0.70;99.90;;;;;;4896093;29;20053;-71
2022/12/11 09:04:37;;;;;;;21.33;8.05;;;0.70;99.90;;;;;;4879189;29;20048;-71
2022/12/11 09:07:03;;;;;;;30.10;11.02;;;0.80;99.90;;;;;;4879589;29;20071;-71
2022/12/11 09:09:28;;;;;;;24.58;8.32;;;0.50;99.90;;;;;;4879482;29;20068;-71
2022/12/11 09:11:55;;;;;;;32.58;12.25;;;0.80;99.90;;;;;;4896201;29;20108;-71
2022/12/11 09:14:21;;;;;;;;;;;0.80;99.90;;;;;;4864181;29;20044;-71
2022/12/11 09:16:46;;;;;;;21.33;8.63;;;0.50;99.90;;;;;;4879029;29;19930;-71
2022/12/11 09:19:14;;;;;;;20.38;8.52;;;0.70;99.90;;;;;;4894508;29;20151;-71
2022/12/11 09:21:41;;;;;;;19.13;7.45;;;0.50;99.90;;;;;;4894356;29;20475;-71
2022/12/11 09:24:09;;;;;;;13.65;6.20;;;0.80;99.90;;;;;;4863486;29;20048;-71
2022/12/11 09:26:34;;;;;;;13.52;5.45;;;0.50;99.90;;;;;;4894646;29;20037;-71
2022/12/11 09:29:02;;;;;;;15.50;6.10;;;0.80;99.90;;;;;;4894661;29;20566;-71
2022/12/11 09:31:30;;;;;;;12.43;5.18;;;0.50;99.90;;;;;;4895869;29;20650;-71
2022/12/11 09:33:59;;;;;;;18.25;7.38;;;0.60;99.90;;;;;;4894387;29;20049;-71
2022/12/11 09:36:26;;;;;;;19.20;8.25;;;0.70;99.90;;;;;;4894305;29;20056;-71
2022/12/11 09:38:52;;;;;;;17.58;7.28;;;0.90;99.90;;;;;;4894430;29;20100;-70
2022/12/11 09:41:21;;;;;;;13.68;6.10;;;0.70;99.90;;;;;;4893843;29;20095;-70
2022/12/11 09:44:14;;;;;;;17.80;6.88;;;0.60;99.90;;;;;;4894096;29;20151;-70
2022/12/11 09:46:41;;;;;;;14.27;6.68;;;0.70;99.90;;;;;;4894036;29;20096;-70
2022/12/11 09:49:25;;;;;;;20.70;8.25;;;0.60;99.90;;;;;;4863159;29;20529;-71
2022/12/11 09:52:11;;;;;;;23.02;9.30;;;0.90;99.90;;;;;;4894040;29;20409;-70
2022/12/11 09:54:56;;;;;;;23.88;9.80;;;0.60;99.90;;;;;;4893803;29;20120;-70
2022/12/11 09:57:27;;;;;;;21.48;8.55;;;0.60;99.90;;;;;;4894016;29;20059;-71
2022/12/11 10:00:03;;;;;;;18.25;7.53;;;0.60;99.90;;;;;;4893983;29;20068;-71
2022/12/11 10:02:49;;;;;;;16.48;6.40;;;0.70;99.90;;;;;;4893871;29;20508;-70
2022/12/11 10:05:30;;;;;;;19.95;7.25;;;1.00;99.90;;;;;;4868834;29;20177;-70
2022/12/11 10:08:07;;;;;;;18.17;7.10;;;1.00;99.90;;;;;;4894773;29;20044;-70
2022/12/11 10:11:10;;;;;;;24.08;9.00;;;0.70;99.90;;;;;;4894140;29;20076;-70
2022/12/11 10:14:10;;;;;;;25.67;10.27;;;1.00;99.90;;;;;;4895858;29;20079;-71
2022/12/11 10:16:40;;;;;;;21.55;9.40;;;0.80;99.90;;;;;;4895155;29;20131;-70
2022/12/11 10:19:16;;;;;;;27.08;10.20;;;0.80;99.90;;;;;;4878245;29;20040;-71
2022/12/11 10:21:42;;;;;;;26.00;10.40;;;1.00;99.90;;;;;;4878119;29;20112;-69
2022/12/11 10:24:30;;;;;;;26.65;10.38;;;0.80;99.90;;;;;;4847565;29;20471;-70
2022/12/11 10:27:07;;;;;;;22.80;8.73;;;0.80;99.90;;;;;;4898844;29;20045;-70
2022/12/11 10:29:33;;;;;;;26.63;11.30;;;1.00;99.90;;;;;;4899142;29;20128;-70
2022/12/11 10:31:58;;;;;;;22.45;9.23;;;0.80;99.90;;;;;;4882566;29;20545;-70
2022/12/11 10:34:38;;;;;;;25.83;10.85;;;1.10;99.90;;;;;;4882166;29;20466;-70
2022/12/11 10:37:03;;;;;;;26.25;10.05;;;1.00;99.90;;;;;;4882490;29;20059;-71
2022/12/11 10:39:29;;;;;;;27.43;10.80;;;0.80;99.90;;;;;;4882242;29;20398;-70
2022/12/11 10:41:56;;;;;;;21.77;9.23;;;1.00;99.90;;;;;;4866307;29;20750;-71
2022/12/11 10:44:24;;;;;;;26.63;9.93;;;0.90;99.90;;;;;;4866719;29;20706;-71
2022/12/11 10:47:16;;;;;;;27.42;10.52;;;1.20;99.90;;;;;;4898799;29;20050;-71
2022/12/11 10:49:55;;;;;;;26.13;9.32;;;1.20;99.90;;;;;;4881546;29;20045;-70
2022/12/11 10:52:31;;;;;;;26.73;10.77;;;1.20;99.90;;;;;;4898897;29;20064;-70
2022/12/11 10:55:04;;;;;;;24.20;10.90;;;1.00;99.90;;;;;;4898842;29;20119;-71
2022/12/11 10:57:36;;;;;;;33.65;13.45;;;1.20;99.90;;;;;;4881523;29;20052;-70
2022/12/11 11:00:05;;;;;;;25.80;10.75;;;1.00;99.90;;;;;;4881686;29;20421;-70
2022/12/11 11:02:34;;;;;;;25.80;10.90;;;1.00;99.90;;;;;;4881326;29;20092;-70
2022/12/11 11:05:14;;;;;;;25.48;10.55;;;1.00;99.90;;;;;;4898539;29;20132;-70
2022/12/11 11:07:40;;;;;;;24.05;9.93;;;1.20;99.90;;;;;;4865964;29;20553;-70
2022/12/11 11:10:09;;;;;;;23.30;9.18;;;1.20;99.90;;;;;;4866210;29;20080;-70
2022/12/11 11:12:43;;;;;;;23.33;9.05;;;1.00;99.90;;;;;;4881325;29;20052;-70
2022/12/11 11:15:16;;;;;;;22.65;8.88;;;1.20;99.90;;;;;;4894714;29;20052;-70
2022/12/11 11:17:48;;;;;;;27.88;10.13;;;1.30;99.90;;;;;;4881587;29;20482;-71
2022/12/11 11:20:17;;;;;;;22.63;9.65;;;1.20;99.90;;;;;;4898669;29;20127;-71
2022/12/11 11:22:55;;;;;;;24.98;9.73;;;1.40;99.90;;;;;;4865754;29;20044;-72
2022/12/11 11:25:24;;;;;;;22.77;8.63;;;1.10;99.90;;;;;;4881093;29;20100;-71
2022/12/11 11:28:06;;;;;;;24.67;9.85;;;1.40;99.90;;;;;;4865789;29;20052;-71
2022/12/11 11:30:38;;;;;;;29.13;12.20;;;1.40;99.90;;;;;;4881227;29;20055;-71
2022/12/11 11:33:11;;;;;;;26.95;11.05;;;1.20;99.90;;;;;;4881101;29;20083;-71
2022/12/11 11:35:36;;;;;;;29.95;11.63;;;1.10;99.90;;;;;;4880818;29;20107;-71
2022/12/11 11:38:14;;;;;;;28.80;12.10;;;1.10;99.90;;;;;;4896911;29;20037;-71
2022/12/11 11:40:49;;;;;;;23.70;10.07;;;1.10;99.90;;;;;;4897922;29;20277;-71
2022/12/11 11:43:43;;;;;;;23.60;9.05;;;1.10;99.90;;;;;;4881020;29;20052;-71
2022/12/11 11:46:37;;;;;;;25.75;10.20;;;1.20;99.90;;;;;;4897768;29;20139;-71
2022/12/11 11:49:12;;;;;;;23.17;9.65;;;1.20;99.90;;;;;;4880667;29;20047;-71
2022/12/11 11:51:47;;;;;;;20.80;8.52;;;1.30;99.90;;;;;;4880977;29;20100;-71
2022/12/11 11:54:19;;;;;;;21.73;8.93;;;1.20;99.90;;;;;;4893094;29;20044;-70
2022/12/11 11:56:45;;;;;;;18.80;7.35;;;1.10;99.90;;;;;;4880618;29;20040;-70
2022/12/11 11:59:46;;;;;;;25.02;9.80;;;1.40;99.90;;;;;;4865350;29;20048;-71
2022/12/11 12:02:17;;;;;;;27.20;10.70;;;1.10;99.90;;;;;;4881589;29;20060;-70
2022/12/11 12:04:44;;;;;;;24.23;10.13;;;1.10;99.90;;;;;;4880391;29;20044;-70
2022/12/11 12:07:22;;;;;;;18.48;7.93;;;1.40;99.90;;;;;;4880539;29;20055;-69
2022/12/11 12:09:57;;;;;;;15.38;7.30;;;1.20;99.90;;;;;;4880511;29;20430;-69
2022/12/11 12:12:37;;;;;;;18.30;8.38;;;1.20;99.90;;;;;;4880045;29;20490;-69
2022/12/11 12:15:27;;;;;;;12.48;5.57;;;1.30;99.90;;;;;;4877517;29;20057;-69
2022/12/11 12:18:01;;;;;;;21.13;8.95;;;1.30;99.90;;;;;;4880299;29;20511;-69
2022/12/11 12:20:45;;;;;;;17.38;7.05;;;1.20;99.90;;;;;;4880056;29;20052;-69
2022/12/11 12:23:17;;;;;;;18.27;7.38;;;1.40;99.90;;;;;;4880123;29;20084;-69
2022/12/11 12:26:01;;;;;;;16.75;7.53;;;1.50;99.90;;;;;;4864605;29;20432;-69
2022/12/11 12:28:43;;;;;;;21.98;8.43;;;1.50;99.90;;;;;;4880027;29;20058;-69
2022/12/11 12:31:24;;;;;;;20.55;7.82;;;1.20;99.90;;;;;;4879988;29;20060;-70
2022/12/11 12:33:59;;;;;;;21.55;8.60;;;1.20;99.90;;;;;;4879694;29;20403;-69
2022/12/11 12:37:01;;;;;;;26.90;10.98;;;1.40;99.90;;;;;;4864560;29;20059;-69
2022/12/11 12:39:33;;;;;;;24.17;10.77;;;1.30;99.90;;;;;;4879786;29;20055;-69
2022/12/11 12:42:19;;;;;;;27.05;11.18;;;1.20;99.90;;;;;;4879684;29;20053;-69
2022/12/11 12:44:58;;;;;;;23.33;9.77;;;1.40;99.90;;;;;;4879641;29;20048;-69
2022/12/11 12:47:27;;;;;;;22.98;9.60;;;1.20;99.90;;;;;;4864745;29;20123;-69
2022/12/11 12:49:55;;;;;;;23.70;8.70;;;1.30;99.90;;;;;;4895173;29;20052;-70
2022/12/11 12:52:29;;;;;;;23.25;10.00;;;1.50;99.90;;;;;;4879651;29;20052;-69
2022/12/11 12:55:15;;;;;;;20.83;9.18;;;1.40;99.90;;;;;;4879647;29;20052;-69
2022/12/11 12:57:53;;;;;;;28.85;11.40;;;1.50;99.90;;;;;;4879435;29;20052;-69
2022/12/11 13:00:30;;;;;;;20.98;9.48;;;1.50;99.90;;;;;;4896086;29;20175;-70
2022/12/11 13:02:57;;;;;;;26.08;9.57;;;1.30;99.90;;;;;;4879324;29;20060;-70
2022/12/11 13:05:29;;;;;;;24.20;9.70;;;1.50;99.90;;;;;;4879864;29;20052;-69
2022/12/11 13:07:58;;;;;;;22.42;9.68;;;1.50;99.90;;;;;;4879803;29;20044;-69